Time;durP1;ratioP1;P1;durP2;ratioP2;P2;SDS_P1;SDS_P2;PMS_P1;PMS_P2;Temp;Humidity;BMP_temperature;BMP_pressure;BME280_temperature;BME280_humidity;BME280_pressure;Samples;Min_cycle;Max_cycle;Signal;HPM_P1;HPM_P2
2023/04/15 00:00:18;;;;;;;8.23;3.57;;;10.40;74.70;;;10.60;53.34;94204.09;5097541;28;20998;-56
2023/04/15 00:02:45;;;;;;;6.07;4.13;;;10.40;74.00;;;10.63;54.21;94193.25;5089865;28;20475;-59
2023/04/15 00:05:12;;;;;;;9.00;4.90;;;10.50;75.20;;;10.67;53.45;94197.22;5092140;28;20454;-56
2023/04/15 00:07:41;;;;;;;5.27;3.60;;;10.50;74.30;;;10.71;53.14;94193.28;5091883;28;20587;-60
2023/04/15 00:10:09;;;;;;;8.90;4.47;;;10.60;74.30;;;10.75;53.06;94191.16;5098991;28;20449;-56
2023/04/15 00:12:36;;;;;;;12.23;4.30;;;10.60;74.30;;;10.77;53.35;94195.28;5093132;28;20474;-54
2023/04/15 00:15:05;;;;;;;4.90;4.03;;;10.60;75.60;;;10.82;53.52;94189.56;5098677;28;20453;-60
2023/04/15 00:17:32;;;;;;;9.43;4.17;;;10.70;75.20;;;10.84;53.30;94189.41;5095152;28;20530;-60
2023/04/15 00:20:00;;;;;;;6.40;4.07;;;10.70;74.10;;;10.81;53.02;94185.28;5089495;28;20462;-60
2023/04/15 00:22:27;;;;;;;13.73;3.07;;;10.70;74.50;;;10.80;53.01;94190.69;5086314;28;20477;-56
2023/04/15 00:24:56;;;;;;;3.37;3.07;;;10.70;74.30;;;10.76;53.36;94200.72;5079967;28;20975;-56
2023/04/15 00:27:23;;;;;;;4.47;3.23;;;10.60;74.70;;;10.75;54.16;94199.91;5086459;28;20526;-60
2023/04/15 00:29:51;;;;;;;8.07;3.10;;;10.60;76.20;;;10.79;54.17;94202.22;5085178;28;20836;-59
2023/04/15 00:32:19;;;;;;;6.43;3.20;;;10.60;76.20;;;10.81;54.36;94198.44;5089372;28;20905;-60
2023/04/15 00:34:46;;;;;;;10.60;4.00;;;10.70;77.30;;;10.85;54.64;94205.03;5089142;28;20477;-57
2023/04/15 00:37:13;;;;;;;5.30;3.80;;;10.70;78.00;;;10.88;54.88;94199.44;5090204;28;20498;-55
2023/04/15 00:39:41;;;;;;;4.87;2.70;;;10.70;78.90;;;10.91;55.22;94200.94;5096558;28;20457;-57
2023/04/15 00:42:09;;;;;;;2.80;2.60;;;10.80;79.60;;;10.92;54.56;94203.44;5094971;28;20579;-56
2023/04/15 00:44:37;;;;;;;4.23;3.17;;;10.80;78.80;;;10.90;54.52;94196.66;5078447;28;20461;-60
2023/04/15 00:47:04;;;;;;;8.23;4.47;;;10.80;78.70;;;10.86;54.52;94208.47;5090840;28;20480;-61
2023/04/15 00:49:32;;;;;;;9.50;5.03;;;10.70;78.00;;;10.79;55.05;94194.31;5095602;28;20462;-56
2023/04/15 00:51:59;;;;;;;6.03;4.40;;;10.70;79.00;;;10.70;55.13;94196.09;5092639;28;20874;-59
2023/04/15 00:54:26;;;;;;;6.17;3.87;;;10.60;79.30;;;10.62;55.37;94207.38;5089963;28;20447;-56
2023/04/15 00:56:53;;;;;;;14.63;5.30;;;10.60;81.00;;;10.57;55.64;94204.41;5089467;28;20473;-57
2023/04/15 00:59:22;;;;;;;8.60;4.50;;;10.50;80.80;;;10.57;55.23;94212.28;5090698;28;20786;-57
2023/04/15 01:01:50;;;;;;;4.10;3.50;;;10.50;81.60;;;10.58;55.58;94199.00;5089808;28;20485;-56
2023/04/15 01:04:17;;;;;;;4.27;3.80;;;10.50;81.40;;;10.59;55.71;94197.19;5088976;28;20833;-56
2023/04/15 01:06:45;;;;;;;6.50;4.73;;;10.50;82.00;;;10.59;55.98;94199.81;5095039;28;20579;-61
2023/04/15 01:09:12;;;;;;;6.37;4.50;;;10.50;82.40;;;10.60;56.02;94209.34;5090865;28;21040;-60
2023/04/15 01:11:39;;;;;;;14.37;4.50;;;10.50;82.40;;;10.59;55.83;94207.69;5094181;28;20461;-56
2023/04/15 01:14:07;;;;;;;5.27;4.10;;;10.50;83.40;;;10.59;55.75;94207.69;5090443;28;20554;-65
2023/04/15 01:16:38;;;;;;;11.00;4.73;;;10.50;82.80;;;10.55;55.84;94203.72;5094377;28;20478;-57
2023/04/15 01:19:06;;;;;;;5.90;4.70;;;10.40;83.00;;;10.49;56.46;94204.38;5083466;28;20549;-59
2023/04/15 01:21:33;;;;;;;11.90;5.90;;;10.40;83.70;;;10.42;56.16;94206.78;5091249;28;21060;-60
2023/04/15 01:24:01;;;;;;;7.13;4.60;;;10.40;83.10;;;10.36;56.00;94213.50;5090654;28;20459;-60
2023/04/15 01:26:30;;;;;;;7.10;4.70;;;10.30;83.40;;;10.32;56.27;94208.66;5095775;28;20556;-60
2023/04/15 01:28:57;;;;;;;11.50;4.60;;;10.30;84.00;;;10.32;56.44;94203.41;5089075;28;20521;-59
2023/04/15 01:31:24;;;;;;;9.00;4.40;;;10.20;84.50;;;10.33;57.00;94211.19;5092783;28;20470;-57
2023/04/15 01:33:52;;;;;;;8.23;5.83;;;10.30;85.90;;;10.34;58.70;94204.94;5086028;28;20535;-58
2023/04/15 01:36:19;;;;;;;7.43;5.40;;;10.30;89.30;;;10.34;58.70;94212.00;5097580;28;20468;-56
2023/04/15 01:38:46;;;;;;;9.60;6.33;;;10.20;90.30;;;10.31;57.62;94204.38;5086041;28;20552;-56
2023/04/15 01:41:14;;;;;;;14.87;7.23;;;10.20;89.30;;;10.29;57.54;94203.72;5096279;28;20453;-56
2023/04/15 01:43:42;;;;;;;8.93;6.40;;;10.20;88.60;;;10.27;57.26;94203.03;5086843;28;20466;-56
2023/04/15 01:46:10;;;;;;;11.83;6.33;;;10.20;88.80;;;10.27;57.73;94205.66;5087835;28;20469;-56
2023/04/15 01:48:37;;;;;;;10.73;6.17;;;10.10;89.80;;;10.26;57.84;94207.47;5092168;28;20485;-60
2023/04/15 01:51:05;;;;;;;12.57;7.23;;;10.10;90.00;;;10.23;58.11;94216.47;5091879;28;20487;-60
2023/04/15 01:53:33;;;;;;;11.00;6.53;;;10.20;90.50;;;10.21;59.11;94217.63;5093857;28;20858;-56
2023/04/15 01:56:00;;;;;;;11.17;6.60;;;10.10;91.30;;;10.16;57.59;94217.25;5084059;28;20975;-60
2023/04/15 01:58:27;;;;;;;13.73;8.00;;;10.10;90.40;;;10.09;58.22;94213.59;5088804;28;20486;-56
2023/04/15 02:00:56;;;;;;;11.03;7.13;;;10.00;90.70;;;10.05;57.97;94219.16;5086903;28;20451;-55
2023/04/15 02:03:24;;;;;;;11.00;6.57;;;10.00;90.90;;;10.03;58.36;94223.72;5094932;28;20949;-56
2023/04/15 02:05:52;;;;;;;14.40;7.90;;;10.00;91.10;;;10.01;58.95;94215.19;5090410;28;20563;-59
2023/04/15 02:08:19;;;;;;;10.10;6.07;;;9.90;92.30;;;10.01;58.86;94223.06;5086904;28;21079;-56
2023/04/15 02:10:46;;;;;;;8.63;6.87;;;9.90;92.30;;;9.97;58.76;94219.09;5083972;28;20479;-57
2023/04/15 02:13:14;;;;;;;10.57;6.93;;;9.90;92.50;;;9.95;59.02;94233.38;5085756;28;20479;-56
2023/04/15 02:15:41;;;;;;;14.97;8.20;;;9.90;92.60;;;9.85;58.27;94226.41;5096389;28;20574;-59
2023/04/15 02:18:10;;;;;;;13.80;6.03;;;9.80;92.00;;;9.79;59.04;94231.41;5082056;28;20485;-58
2023/04/15 02:20:38;;;;;;;12.53;6.70;;;9.80;92.70;;;9.72;59.44;94225.13;5082068;28;20455;-61
2023/04/15 02:23:06;;;;;;;7.50;5.73;;;9.70;93.20;;;9.68;59.96;94220.16;5084695;28;20988;-58
2023/04/15 02:25:33;;;;;;;12.53;6.43;;;9.60;93.90;;;9.68;59.96;94221.94;5079795;28;20578;-59
2023/04/15 02:28:00;;;;;;;10.80;6.63;;;9.60;93.90;;;9.68;60.17;94219.31;5089247;28;20596;-60
2023/04/15 02:30:28;;;;;;;12.53;7.27;;;9.60;94.40;;;9.64;61.48;94223.25;5087849;28;21327;-61
2023/04/15 02:32:55;;;;;;;13.50;7.60;;;9.60;95.60;;;9.60;59.80;94220.06;5094788;28;20485;-59
2023/04/15 02:35:24;;;;;;;16.07;7.33;;;9.50;94.50;;;9.58;60.02;94226.47;5081804;28;20999;-60
2023/04/15 02:37:52;;;;;;;10.27;7.90;;;9.50;94.50;;;9.57;59.80;94225.63;5088378;28;20957;-56
2023/04/15 02:40:19;;;;;;;13.50;7.40;;;9.50;94.50;;;9.54;60.34;94236.44;5087335;28;20464;-59
2023/04/15 02:42:46;;;;;;;7.20;4.80;;;9.50;95.40;;;9.46;59.42;94231.09;5084896;28;20920;-57
2023/04/15 02:45:14;;;;;;;6.00;4.40;;;9.40;94.20;;;9.38;59.01;94233.66;5090463;28;20465;-59
2023/04/15 02:47:42;;;;;;;9.23;5.77;;;9.30;93.70;;;9.30;59.18;94234.41;5085229;28;20492;-56
2023/04/15 02:50:11;;;;;;;6.73;4.77;;;9.30;93.70;;;9.22;59.44;94231.69;5085605;28;20451;-57
2023/04/15 02:52:41;;;;;;;11.00;4.80;;;9.20;94.00;;;9.17;58.75;94236.53;5081648;28;20477;-61
2023/04/15 02:55:09;;;;;;;9.30;4.43;;;9.10;93.90;;;9.11;59.03;94230.09;5085477;28;20466;-59
2023/04/15 02:57:37;;;;;;;10.57;4.90;;;9.10;93.90;;;9.06;58.67;94240.19;5089480;28;20513;-59
2023/04/15 03:00:08;;;;;;;7.10;4.53;;;9.00;94.10;;;9.01;59.09;94238.00;5083966;28;20450;-55
2023/04/15 03:02:36;;;;;;;5.07;4.57;;;9.00;93.90;;;8.95;58.88;94238.56;5090319;28;20478;-55
2023/04/15 03:05:04;;;;;;;7.37;4.17;;;8.90;93.90;;;8.90;59.01;94246.88;5085896;28;20449;-61
2023/04/15 03:07:32;;;;;;;7.37;4.70;;;8.90;94.10;;;8.85;58.95;94238.63;5092281;28;20542;-66
2023/04/15 03:10:01;;;;;;;11.50;4.77;;;8.80;94.50;;;8.84;58.77;94244.03;5086118;28;21035;-60
2023/04/15 03:12:29;;;;;;;8.17;4.97;;;8.80;94.10;;;8.79;59.42;94249.69;5090895;28;20515;-60
2023/04/15 03:14:56;;;;;;;5.90;4.50;;;8.80;94.30;;;8.75;59.58;94253.56;5085295;28;20474;-59
2023/04/15 03:17:23;;;;;;;8.70;4.80;;;8.70;94.40;;;8.72;59.27;94243.38;5090757;28;20481;-57
2023/04/15 03:19:51;;;;;;;6.50;4.93;;;8.70;94.40;;;8.69;59.11;94243.66;5089484;28;20461;-58
2023/04/15 03:22:18;;;;;;;5.90;4.53;;;8.70;94.40;;;8.65;59.51;94244.94;5090437;28;20462;-56
2023/04/15 03:24:45;;;;;;;8.30;5.70;;;8.60;94.40;;;8.60;59.52;94246.19;5095857;28;20461;-56
2023/04/15 03:27:14;;;;;;;8.23;5.60;;;8.60;94.50;;;8.57;59.17;94258.75;5086108;28;20478;-60
2023/04/15 03:29:41;;;;;;;12.03;5.10;;;8.50;94.60;;;8.54;59.80;94267.72;5093618;28;20547;-60
2023/04/15 03:32:08;;;;;;;7.03;5.70;;;8.50;95.00;;;8.49;60.56;94280.44;5093133;28;20543;-57
2023/04/15 03:34:36;;;;;;;14.53;5.97;;;8.50;96.10;;;8.43;60.74;94281.81;5098912;28;20495;-61
2023/04/15 03:37:03;;;;;;;10.60;6.70;;;8.40;95.40;;;8.38;60.02;94280.53;5088463;28;20542;-56
2023/04/15 03:39:30;;;;;;;22.37;15.60;;;8.40;95.50;;;8.34;60.47;94292.28;5092422;28;20466;-60
2023/04/15 03:41:58;;;;;;;15.73;11.17;;;8.30;95.70;;;8.27;61.04;94289.38;5088406;28;20476;-57
2023/04/15 03:44:27;;;;;;;12.60;9.30;;;8.30;96.30;;;8.23;60.72;94288.84;5091932;28;20507;-58
2023/04/15 03:46:54;;;;;;;20.23;11.27;;;8.20;96.00;;;8.18;60.86;94298.94;5092869;28;20901;-56
2023/04/15 03:49:22;;;;;;;10.73;9.17;;;8.20;96.00;;;8.14;60.73;94294.91;5094720;28;20485;-55
2023/04/15 03:51:49;;;;;;;8.50;7.37;;;8.10;96.40;;;8.11;60.41;94292.59;5092520;28;20489;-55
2023/04/15 03:54:16;;;;;;;9.80;5.97;;;8.10;96.00;;;8.08;60.33;94298.09;5086106;28;20466;-56
2023/04/15 03:56:44;;;;;;;11.97;6.20;;;8.10;96.10;;;8.03;60.37;94300.31;5088460;28;20480;-56
2023/04/15 03:59:11;;;;;;;8.53;5.73;;;8.00;96.20;;;7.96;61.38;94294.78;5093305;28;20822;-55
2023/04/15 04:01:40;;;;;;;12.20;6.40;;;8.00;96.40;;;7.94;60.63;94301.13;5091164;28;20557;-60
2023/04/15 04:04:07;;;;;;;8.40;5.87;;;8.00;96.50;;;7.90;60.49;94292.75;5093525;28;20932;-61
2023/04/15 04:06:34;;;;;;;9.17;5.67;;;7.90;96.50;;;7.91;61.09;94289.16;5088829;28;20477;-60
2023/04/15 04:09:02;;;;;;;8.00;5.37;;;7.90;96.80;;;7.94;61.46;94301.13;5083963;28;20536;-60
2023/04/15 04:11:29;;;;;;;8.87;7.07;;;7.90;97.20;;;7.95;61.22;94301.00;5094367;28;21184;-60
2023/04/15 04:13:56;;;;;;;8.57;6.13;;;7.90;96.90;;;7.95;61.65;94301.00;5095119;28;20477;-58
2023/04/15 04:16:24;;;;;;;8.40;7.10;;;7.90;97.20;;;7.99;61.83;94301.53;5086486;28;20470;-60
2023/04/15 04:18:52;;;;;;;9.70;6.67;;;7.90;97.40;;;8.00;61.16;94297.97;5089228;28;20461;-61
2023/04/15 04:21:20;;;;;;;9.20;5.70;;;8.00;97.40;;;8.01;61.88;94299.59;5089128;28;20441;-55
2023/04/15 04:23:47;;;;;;;11.70;5.70;;;8.00;97.60;;;8.04;61.54;94300.19;5087951;28;20474;-59
2023/04/15 04:26:15;;;;;;;6.97;5.47;;;8.00;97.60;;;8.07;62.07;94304.28;5093946;28;20457;-55
2023/04/15 04:28:42;;;;;;;6.37;5.13;;;8.00;97.50;;;8.11;61.42;94307.47;5084070;28;20504;-56
2023/04/15 04:31:09;;;;;;;8.90;5.30;;;8.00;97.60;;;8.11;61.38;94310.91;5091601;28;20461;-56
2023/04/15 04:33:37;;;;;;;10.47;6.10;;;8.10;97.40;;;8.13;61.35;94308.16;5091764;28;20454;-60
2023/04/15 04:36:06;;;;;;;9.63;5.80;;;8.10;97.70;;;8.18;61.58;94309.41;5092988;28;21271;-58
2023/04/15 04:38:33;;;;;;;6.07;4.70;;;8.10;97.80;;;8.24;62.61;94318.47;5093662;28;20460;-60
2023/04/15 04:41:01;;;;;;;7.07;4.83;;;8.20;98.00;;;8.28;61.90;94313.81;5094604;28;20462;-60
2023/04/15 04:43:28;;;;;;;8.40;5.90;;;8.20;97.70;;;8.37;62.15;94318.22;5098172;28;20522;-56
2023/04/15 04:45:55;;;;;;;7.70;5.67;;;8.30;97.90;;;8.52;61.23;94322.09;5086626;28;20467;-57
2023/04/15 04:48:23;;;;;;;10.03;6.37;;;8.40;97.80;;;8.67;61.02;94329.50;5080520;28;20490;-57
2023/04/15 04:50:50;;;;;;;11.30;6.17;;;8.60;97.70;;;8.75;61.75;94332.22;5094200;28;20453;-56
2023/04/15 04:53:19;;;;;;;7.03;6.30;;;8.70;97.70;;;8.79;61.82;94325.75;5093736;28;20869;-56
2023/04/15 04:55:46;;;;;;;9.27;6.40;;;8.70;97.80;;;8.81;60.81;94321.16;5087226;28;20606;-60
2023/04/15 04:58:14;;;;;;;12.80;8.00;;;8.80;97.50;;;8.83;62.13;94327.13;5096117;28;20503;-61
2023/04/15 05:00:41;;;;;;;15.60;7.67;;;8.80;98.20;;;8.82;61.68;94328.06;5089311;28;20508;-56
2023/04/15 05:03:09;;;;;;;26.23;15.20;;;8.80;97.90;;;8.82;61.09;94333.31;5091618;28;20481;-55
2023/04/15 05:05:38;;;;;;;7.87;6.00;;;8.80;97.40;;;8.86;61.57;94331.22;5096876;28;20457;-56
2023/04/15 05:08:06;;;;;;;7.63;5.77;;;8.80;97.60;;;8.89;60.21;94337.03;5082037;28;20630;-60
2023/04/15 05:10:34;;;;;;;7.37;5.20;;;8.90;97.20;;;8.96;60.19;94339.91;5091798;28;20458;-60
2023/04/15 05:13:02;;;;;;;8.30;5.40;;;8.90;97.20;;;9.02;60.49;94341.13;5092234;28;20561;-55
2023/04/15 05:15:29;;;;;;;9.50;5.77;;;8.90;97.10;;;9.08;60.20;94348.44;5084335;28;20815;-60
2023/04/15 05:17:56;;;;;;;7.30;5.10;;;9.00;97.00;;;9.15;60.59;94357.38;5094636;28;20473;-55
2023/04/15 05:20:23;;;;;;;8.63;4.70;;;9.10;97.30;;;9.27;59.99;94361.47;5078600;28;20457;-56
2023/04/15 05:22:51;;;;;;;5.30;4.80;;;9.20;96.90;;;9.37;59.32;94355.34;5085541;28;20479;-59
2023/04/15 05:25:18;;;;;;;7.20;4.90;;;9.30;96.50;;;9.45;59.52;94358.91;5086584;28;20464;-58
2023/04/15 05:27:47;;;;;;;5.80;4.37;;;9.30;96.50;;;9.50;59.52;94355.84;5080433;28;20454;-65
2023/04/15 05:30:14;;;;;;;10.07;4.90;;;9.40;96.30;;;9.59;59.40;94362.84;5096128;28;20724;-62
2023/04/15 05:32:42;;;;;;;8.67;4.17;;;9.50;96.30;;;9.72;59.95;94353.78;5081626;28;20469;-57
2023/04/15 05:35:09;;;;;;;6.07;4.20;;;9.60;96.70;;;9.87;58.86;94344.44;5087267;28;20446;-58
2023/04/15 05:37:37;;;;;;;12.17;6.53;;;9.70;96.20;;;10.08;58.39;94345.94;5087839;28;20479;-57
2023/04/15 05:40:04;;;;;;;5.73;4.30;;;9.90;96.00;;;10.26;58.52;94344.16;5092460;28;20817;-58
2023/04/15 05:42:32;;;;;;;5.00;3.60;;;10.00;95.50;;;10.50;58.07;94351.47;5088300;28;20477;-56
2023/04/15 05:45:04;;;;;;;10.00;5.33;;;10.20;95.00;;;10.75;57.11;94355.09;5090613;28;20453;-60
2023/04/15 05:47:31;;;;;;;8.20;5.17;;;10.50;94.70;;;10.99;56.84;94358.84;5086251;28;21093;-60
2023/04/15 05:49:59;;;;;;;8.40;4.50;;;10.70;94.20;;;11.25;56.59;94358.03;5092909;28;20573;-58
2023/04/15 05:52:26;;;;;;;11.50;4.40;;;10.90;93.90;;;11.50;56.24;94366.03;5092688;28;20474;-57
2023/04/15 05:54:53;;;;;;;6.83;4.53;;;11.20;93.70;;;11.74;55.55;94360.03;5080886;28;20450;-59
2023/04/15 05:57:21;;;;;;;12.10;4.40;;;11.40;93.20;;;12.01;55.04;94359.00;5084691;28;20483;-57
2023/04/15 05:59:50;;;;;;;8.40;3.60;;;11.60;92.90;;;12.29;54.35;94366.63;5077600;28;20466;-57
2023/04/15 06:02:19;;;;;;;7.23;4.07;;;11.90;92.30;;;12.52;53.88;94359.72;5082484;28;20488;-60
2023/04/15 06:04:46;;;;;;;7.83;4.50;;;12.10;91.90;;;12.79;53.30;94368.28;5088832;28;20471;-60
2023/04/15 06:07:14;;;;;;;3.70;2.77;;;12.40;91.10;;;13.04;52.67;94363.00;5089780;28;20481;-58
2023/04/15 06:09:41;;;;;;;5.63;3.30;;;12.60;90.30;;;13.31;51.99;94359.16;5081803;28;20481;-59
2023/04/15 06:12:11;;;;;;;5.90;3.80;;;12.90;89.80;;;13.55;51.61;94363.53;5093136;28;20504;-59
2023/04/15 06:14:39;;;;;;;3.60;3.23;;;13.20;88.60;;;13.77;50.84;94369.91;5085288;28;20481;-58
2023/04/15 06:17:07;;;;;;;7.63;3.27;;;13.40;87.60;;;14.04;51.37;94374.94;5089107;28;20501;-59
2023/04/15 06:19:36;;;;;;;4.80;3.07;;;13.60;87.70;;;14.34;50.79;94375.88;5082087;28;20449;-60
2023/04/15 06:22:06;;;;;;;3.90;2.27;;;13.90;86.30;;;14.68;50.03;94377.34;5087701;28;20470;-61
2023/04/15 06:24:35;;;;;;;13.00;4.10;;;14.20;85.40;;;15.02;48.25;94384.84;5085275;28;20991;-57
2023/04/15 06:27:03;;;;;;;11.43;3.93;;;14.60;81.80;;;15.30;48.76;94386.91;5089000;28;20509;-61
2023/04/15 06:29:30;;;;;;;5.47;2.93;;;14.80;81.60;;;15.55;47.98;94394.59;5083365;28;20513;-60
2023/04/15 06:31:58;;;;;;;9.27;3.00;;;15.10;80.90;;;15.80;47.67;94391.69;5081349;28;20480;-58
2023/04/15 06:34:26;;;;;;;7.80;3.10;;;15.30;79.20;;;16.05;47.70;94390.41;5089758;28;20461;-61
2023/04/15 06:36:54;;;;;;;8.07;3.13;;;15.60;79.60;;;16.34;47.55;94390.53;5094884;28;20473;-60
2023/04/15 06:39:22;;;;;;;11.93;3.07;;;15.90;78.90;;;16.61;47.02;94394.31;5091702;28;20481;-60
2023/04/15 06:41:50;;;;;;;8.20;3.77;;;16.10;77.30;;;16.85;46.63;94401.06;5084660;28;20494;-59
2023/04/15 06:44:17;;;;;;;9.20;4.03;;;16.40;76.00;;;17.11;46.50;94403.16;5083437;28;20479;-61
2023/04/15 06:46:44;;;;;;;8.63;3.27;;;16.60;75.50;;;17.38;45.98;94406.00;5091129;28;20473;-57
2023/04/15 06:49:12;;;;;;;4.77;3.50;;;16.90;74.40;;;17.68;45.15;94406.63;5079570;28;20485;-59
2023/04/15 06:51:39;;;;;;;2.87;2.63;;;17.20;74.40;;;17.85;44.82;94406.34;5091529;28;20558;-57
2023/04/15 06:54:08;;;;;;;6.40;3.40;;;17.40;71.80;;;18.05;44.59;94406.47;5085267;28;20451;-57
2023/04/15 06:56:35;;;;;;;8.47;3.33;;;17.60;70.70;;;18.26;44.28;94406.38;5087193;28;20470;-60
2023/04/15 06:59:03;;;;;;;9.57;4.00;;;17.80;70.30;;;18.41;43.84;94405.38;5090491;28;20456;-61
2023/04/15 07:01:31;;;;;;;6.10;3.50;;;17.90;68.20;;;18.56;43.66;94402.53;5088951;28;20665;-57
2023/04/15 07:03:58;;;;;;;8.77;4.10;;;18.10;67.70;;;18.71;42.84;94405.06;5084007;28;21048;-57
2023/04/15 07:06:26;;;;;;;5.10;3.67;;;18.20;67.00;;;18.85;42.97;94392.59;5091411;28;20465;-61
2023/04/15 07:08:54;;;;;;;8.53;4.13;;;18.30;66.10;;;18.97;42.41;94393.66;5087508;28;20577;-58
2023/04/15 07:11:23;;;;;;;6.50;3.83;;;18.50;65.10;;;18.96;41.72;94392.84;5084480;28;20934;-56
2023/04/15 07:13:50;;;;;;;5.77;3.40;;;18.50;63.90;;;18.83;42.17;94391.97;5089036;28;20468;-60
2023/04/15 07:16:18;;;;;;;8.37;4.17;;;18.50;63.60;;;18.67;40.83;94398.47;5085892;28;20464;-58
2023/04/15 07:18:45;;;;;;;13.00;2.93;;;18.30;61.50;;;18.54;41.76;94400.09;5086950;28;20465;-59
2023/04/15 07:21:13;;;;;;;6.50;2.97;;;18.20;62.00;;;18.52;42.52;94401.31;5084318;28;20455;-60
2023/04/15 07:23:40;;;;;;;5.70;3.33;;;18.20;63.10;;;18.70;42.61;94400.75;5092354;28;20449;-59
2023/04/15 07:26:08;;;;;;;6.50;3.37;;;18.30;63.60;;;18.89;40.52;94391.19;5088159;28;20452;-62
2023/04/15 07:28:37;;;;;;;8.60;2.90;;;18.40;62.50;;;18.88;41.01;94390.34;5079892;28;20907;-60
2023/04/15 07:31:05;;;;;;;7.63;3.30;;;18.50;61.30;;;18.79;41.57;94391.53;5085509;28;20493;-58
2023/04/15 07:33:32;;;;;;;8.10;2.67;;;18.40;61.40;;;18.73;41.53;94397.66;5079036;28;20451;-59
2023/04/15 07:35:59;;;;;;;4.23;2.10;;;18.40;61.50;;;18.79;41.16;94397.69;5076631;28;20461;-61
2023/04/15 07:38:27;;;;;;;8.97;3.60;;;18.40;61.50;;;18.93;41.00;94403.91;5080359;28;20463;-60
2023/04/15 07:40:55;;;;;;;7.20;3.20;;;18.50;60.90;;;18.96;40.85;94405.31;5082544;28;20856;-61
2023/04/15 07:43:24;;;;;;;4.27;2.60;;;18.60;60.60;;;18.93;40.72;94392.41;5076919;28;20498;-62
2023/04/15 07:45:52;;;;;;;12.90;2.53;;;18.60;59.90;;;18.92;40.54;94396.94;5082612;28;20464;-58
2023/04/15 07:48:20;;;;;;;2.90;2.43;;;18.60;59.60;;;18.97;41.29;94405.13;5083828;28;20531;-56
2023/04/15 07:50:47;;;;;;;4.30;2.20;;;18.70;59.90;;;19.31;40.58;94410.47;5088590;28;20492;-61
2023/04/15 07:53:15;;;;;;;9.90;2.20;;;18.90;59.60;;;19.82;40.02;94406.38;5083890;28;20480;-58
2023/04/15 07:55:42;;;;;;;349.30;18.80;;;19.30;59.70;;;20.42;39.56;94395.50;5081892;28;20981;-63
2023/04/15 07:58:10;;;;;;;3.93;1.90;;;19.80;59.10;;;21.12;39.03;94411.56;5087449;28;20475;-64
2023/04/15 08:00:38;;;;;;;3.13;2.13;;;20.50;58.60;;;21.85;37.91;94420.84;5073535;28;20620;-63
2023/04/15 08:03:07;;;;;;;3.70;2.47;;;21.30;57.60;;;22.54;37.46;94418.06;5074928;28;20489;-62
2023/04/15 08:05:35;;;;;;;2.30;2.10;;;22.10;56.30;;;23.12;35.84;94412.38;5074886;28;20455;-60
2023/04/15 08:08:02;;;;;;;2.70;1.47;;;22.70;53.80;;;23.56;35.35;94413.75;5077767;28;20486;-60
2023/04/15 08:10:30;;;;;;;2.10;1.10;;;23.20;52.90;;;23.82;33.23;94422.38;5077397;28;20483;-60
2023/04/15 08:12:57;;;;;;;4.03;1.00;;;23.60;49.20;;;23.58;30.83;94414.31;5080970;28;20482;-61
2023/04/15 08:15:26;;;;;;;1.97;0.87;;;23.60;46.10;;;23.38;32.32;94413.84;5082674;28;20453;-59
2023/04/15 08:17:53;;;;;;;3.30;1.23;;;23.40;46.90;;;23.65;31.56;94421.47;5076469;28;20849;-59
2023/04/15 08:20:22;;;;;;;4.50;1.03;;;23.60;46.90;;;23.94;32.13;94414.38;5077557;28;20458;-59
2023/04/15 08:22:50;;;;;;;2.80;0.80;;;23.90;46.90;;;24.22;30.01;94424.38;5080857;28;20483;-59
2023/04/15 08:25:18;;;;;;;3.13;1.43;;;24.20;44.20;;;24.09;31.05;94419.25;5081639;28;20512;-62
2023/04/15 08:27:46;;;;;;;3.37;1.27;;;24.30;44.60;;;24.22;30.56;94416.31;5083669;28;20509;-61
2023/04/15 08:30:14;;;;;;;3.10;0.70;;;24.40;45.00;;;24.57;30.91;94425.34;5084142;28;20482;-59
2023/04/15 08:32:42;;;;;;;1.43;1.00;;;24.70;45.20;;;24.68;29.45;94411.09;5085606;28;20478;-60
2023/04/15 08:35:10;;;;;;;4.70;0.90;;;24.90;43.60;;;24.60;29.05;94406.09;5084038;28;20458;-61
2023/04/15 08:37:39;;;;;;;1.83;1.10;;;24.90;41.90;;;24.29;29.09;94398.22;5090448;28;20499;-59
2023/04/15 08:40:08;;;;;;;1.10;0.73;;;24.50;41.60;;;24.19;29.70;94408.72;5078971;28;20489;-67
2023/04/15 08:42:41;;;;;;;8.10;1.30;;;24.20;42.00;;;24.28;28.78;94396.56;5083959;28;20481;-62
2023/04/15 08:45:10;;;;;;;3.57;1.27;;;24.20;42.30;;;24.28;29.14;94393.06;5084604;28;20889;-60
2023/04/15 08:47:38;;;;;;;1.93;1.30;;;24.10;43.10;;;24.45;29.30;94391.25;5085170;28;20915;-61
2023/04/15 08:50:09;;;;;;;3.67;1.40;;;24.10;43.30;;;24.82;29.84;94392.81;5089480;28;20489;-59
2023/04/15 08:52:38;;;;;;;5.80;1.70;;;24.40;44.10;;;25.17;28.59;94389.13;5087316;28;20565;-58
2023/04/15 08:55:06;;;;;;;4.63;1.10;;;24.70;42.70;;;25.33;29.14;94392.91;5082025;28;20447;-61
2023/04/15 08:57:33;;;;;;;1.73;0.80;;;24.80;42.10;;;25.46;27.85;94392.59;5083171;28;20920;-60
2023/04/15 09:00:02;;;;;;;2.30;0.80;;;24.90;41.20;;;25.40;27.40;94391.69;5084488;28;20462;-62
2023/04/15 09:02:29;;;;;;;2.37;1.60;;;25.00;40.40;;;25.29;26.42;94403.34;5089198;28;20482;-61
2023/04/15 09:04:57;;;;;;;5.07;1.23;;;24.90;39.20;;;25.04;26.59;94385.69;5076414;28;20447;-63
2023/04/15 09:07:24;;;;;;;2.90;0.83;;;24.70;39.80;;;24.91;25.80;94386.00;5087807;28;20476;-59
2023/04/15 09:09:53;;;;;;;3.63;1.20;;;24.60;38.60;;;24.58;26.45;94389.38;5089409;28;20755;-63
2023/04/15 09:12:20;;;;;;;5.37;1.70;;;24.30;39.10;;;24.12;27.13;94379.31;5092552;28;20577;-59
2023/04/15 09:14:48;;;;;;;2.23;1.17;;;23.90;39.00;;;24.13;27.58;94369.38;5085017;28;20500;-61
2023/04/15 09:17:15;;;;;;;7.97;1.40;;;23.80;39.70;;;24.37;27.25;94366.63;5087224;28;20569;-61
2023/04/15 09:19:42;;;;;;;2.50;1.00;;;23.90;39.70;;;24.57;27.80;94364.38;5084608;28;20537;-58
2023/04/15 09:22:10;;;;;;;1.67;0.83;;;24.10;40.70;;;24.90;27.84;94356.63;5093160;28;20477;-60
2023/04/15 09:24:39;;;;;;;3.70;1.10;;;24.30;40.20;;;25.14;27.02;94354.63;5082674;28;20896;-59
2023/04/15 09:27:08;;;;;;;3.53;1.00;;;24.60;39.80;;;25.16;25.85;94368.63;5088626;28;20554;-59
2023/04/15 09:29:35;;;;;;;2.97;1.13;;;24.60;37.90;;;24.92;26.20;94359.91;5085462;28;20454;-62
2023/04/15 09:32:13;;;;;;;4.50;0.90;;;24.50;37.60;;;24.41;25.83;94359.72;5082822;28;20469;-60
2023/04/15 09:34:40;;;;;;;1.43;1.00;;;24.20;37.50;;;24.04;25.37;94370.78;5079280;28;20462;-59
2023/04/15 09:37:09;;;;;;;1.33;0.93;;;23.80;36.50;;;23.53;26.11;94371.25;5088168;28;20576;-59
2023/04/15 09:39:48;;;;;;;2.70;1.30;;;23.30;36.50;;;23.09;26.66;94371.53;5086858;28;20454;-60
2023/04/15 09:42:22;;;;;;;4.73;1.73;;;22.90;37.40;;;22.80;25.97;94373.16;5084207;28;20822;-62
2023/04/15 09:44:51;;;;;;;3.33;1.20;;;22.50;37.10;;;22.47;26.40;94369.09;5078989;28;20443;-60
2023/04/15 09:47:28;;;;;;;4.10;1.00;;;22.20;37.50;;;22.14;26.02;94369.47;5076607;28;21099;-59
2023/04/15 09:49:57;;;;;;;1.77;0.93;;;21.90;37.40;;;22.02;27.23;94377.44;5082935;28;20533;-60
2023/04/15 09:52:24;;;;;;;3.30;1.13;;;21.70;38.00;;;21.87;26.25;94376.97;5084609;28;20497;-63
2023/04/15 09:54:54;;;;;;;1.47;0.73;;;21.60;37.70;;;21.65;26.69;94372.03;5082833;28;20455;-65
2023/04/15 09:57:23;;;;;;;3.73;1.07;;;21.40;37.20;;;21.61;27.14;94373.50;5084425;28;20476;-60
2023/04/15 09:59:51;;;;;;;7.87;0.87;;;21.30;38.10;;;21.62;26.67;94369.81;5080099;28;20459;-62
2023/04/15 10:02:19;;;;;;;1.83;0.80;;;21.30;38.00;;;21.59;27.25;94379.09;5080135;28;20478;-61
2023/04/15 10:04:47;;;;;;;1.93;0.93;;;21.20;38.00;;;21.54;26.57;94375.47;5082109;28;20552;-62
2023/04/15 10:07:15;;;;;;;1.50;0.97;;;21.20;37.20;;;21.47;26.87;94378.97;5084451;28;20568;-61
2023/04/15 10:09:44;;;;;;;1.77;1.07;;;21.10;37.60;;;21.40;26.79;94383.56;5088833;28;20454;-62
2023/04/15 10:12:12;;;;;;;5.17;1.23;;;21.10;37.90;;;21.29;27.12;94382.41;5091406;28;21065;-61
2023/04/15 10:14:41;;;;;;;1.97;0.77;;;21.00;38.00;;;21.23;26.95;94369.09;5090312;28;20469;-63
2023/04/15 10:17:09;;;;;;;2.30;0.97;;;20.90;38.00;;;21.09;27.06;94358.50;5091977;28;20473;-58
2023/04/15 10:19:37;;;;;;;1.60;1.50;;;20.80;37.90;;;21.03;27.88;94361.22;5085859;28;20443;-58
2023/04/15 10:22:04;;;;;;;1.10;0.80;;;20.70;38.80;;;21.06;27.03;94364.28;5095157;28;20907;-59
2023/04/15 10:24:33;;;;;;;0.90;0.80;;;20.70;38.40;;;21.06;27.89;94358.94;5083963;28;20451;-60